METAR Data
IDs: Format: Raw Decoded Include TAF

Data at: 1135 UTC 22 Jan 2022

K1V6 221115Z AUTO 16003KT 4SM -SN SCT018 OVC025 00/00 A3033 RMK AO2
K1V6 221055Z AUTO 17004KT 5SM -SN BKN018 OVC025 00/00 A3033 RMK AO2
K1V6 221035Z AUTO 16005KT 7SM -SN OVC016 00/00 A3033 RMK AO2
K1V6 221015Z AUTO 15005KT 10SM -SN SCT012 SCT018 OVC024 00/00 A3033 RMK AO2
K1V6 220955Z AUTO 16005KT 7SM SCT004 SCT014 OVC022 00/00 A3033 RMK AO2
K1V6 220935Z AUTO 16005KT 4SM -SN SCT004 OVC012 00/00 A3033 RMK AO2
K1V6 220915Z AUTO 16005KT 5SM -SN SCT006 OVC012 00/00 A3033 RMK AO2
K1V6 220855Z AUTO 00000KT 5SM UP SCT007 OVC012 00/00 A3033 RMK AO2
K1V6 220835Z AUTO 16004KT 3SM -SN OVC012 00/00 A3033 RMK AO2
K1V6 220815Z AUTO 16005KT 4SM BR OVC012 00/00 A3033 RMK AO2
K1V6 220755Z AUTO 16003KT 7SM -SN OVC012 00/00 A3032 RMK AO2
K1V6 220735Z AUTO 17005KT 7SM -SN OVC012 00/00 A3033 RMK AO2
K1V6 220715Z AUTO 17005KT 7SM OVC010 01/00 A3032 RMK AO2
K1V6 220655Z AUTO 14003KT 10SM OVC010 01/00 A3033 RMK AO2
K1V6 220635Z AUTO 16005KT 10SM OVC012 01/00 A3033 RMK AO2
K1V6 220615Z AUTO 16005KT 7SM OVC012 01/00 A3032 RMK AO2
K1V6 220555Z AUTO 16007KT 7SM -SN OVC012 01/00 A3032 RMK AO2
K1V6 220535Z AUTO 15007KT 7SM -SN OVC014 01/00 A3031 RMK AO2
K1V6 220515Z AUTO 16007KT 7SM -SN OVC016 01/00 A3031 RMK AO2
K1V6 220455Z AUTO 16008KT 10SM -SN BKN016 BKN022 OVC045 01/00 A3030 RMK AO2
K1V6 220435Z AUTO 16009G17KT 10SM BKN047 OVC055 01/00 A3029 RMK AO2
K1V6 220415Z AUTO 17010KT 10SM SCT047 OVC055 01/00 A3028 RMK AO2
K1V6 220355Z AUTO 16009KT 10SM OVC047 01/00 A3028 RMK AO2
K1V6 220335Z AUTO 16010KT 10SM OVC050 01/00 A3028 RMK AO2
K1V6 220315Z AUTO 16010KT 10SM BKN046 OVC060 01/00 A3027 RMK AO2
K1V6 220255Z AUTO 16011KT 10SM SCT016 SCT022 OVC046 01/00 A3027 RMK AO2
K1V6 220235Z AUTO 15011G16KT 10SM SCT009 BKN016 OVC046 01/00 A3026 RMK AO2
K1V6 220215Z AUTO 16011KT 10SM BKN009 BKN016 OVC048 01/00 A3025 RMK AO2
K1V6 220155Z AUTO 15011KT 10SM SCT007 BKN024 OVC044 01/01 A3024 RMK AO2
K1V6 220135Z AUTO 15011G15KT 10SM BKN007 OVC042 01/01 A3023 RMK AO2
K1V6 220115Z AUTO 17009KT 10SM BKN007 BKN014 OVC041 01/01 A3022 RMK AO2
K1V6 220055Z AUTO 16008KT 10SM SCT015 SCT024 OVC041 02/00 A3021 RMK AO2
K1V6 220035Z AUTO 11012G17KT 10SM SCT026 BKN039 OVC045 02/00 A3019 RMK AO2
K1V6 220015Z AUTO 13010KT 10SM BKN027 OVC033 02/00 A3018 RMK AO2
K1V6 212355Z AUTO 13009KT 10SM OVC025 03/00 A3017 RMK AO2
K1V6 212335Z AUTO 00000KT 10SM BKN025 BKN030 OVC036 02/01 A3016 RMK AO2
K1V6 212315Z AUTO 04003KT 10SM BKN028 BKN037 OVC043 02/01 A3015 RMK AO2
K1V6 212255Z AUTO 06007KT 7SM -SN SCT025 OVC033 02/00 A3015 RMK AO2
K1V6 212235Z AUTO 06010KT 7SM -RA SCT026 BKN034 OVC044 03/00 A3013 RMK AO2
K1V6 212215Z AUTO 06012KT 10SM SCT036 OVC044 05/M01 A3012 RMK AO2
K1V6 212155Z AUTO 15009KT 10SM BKN048 OVC050 06/M03 A3011 RMK AO2
K1V6 212135Z AUTO 11011KT 10SM OVC050 06/M02 A3009 RMK AO2
K1V6 212115Z AUTO 11013G21KT 10SM OVC060 06/M02 A3008 RMK AO2
K1V6 212055Z AUTO 12015KT 10SM SCT048 OVC060 06/M02 A3008 RMK AO2
K1V6 212035Z AUTO 09013G22KT 10SM BKN050 OVC060 07/M03 A3007 RMK AO2
K1V6 212015Z AUTO 08019G25KT 10SM BKN060 OVC070 07/M04 A3006 RMK AO2
K1V6 211955Z AUTO 08020G28KT 10SM BKN070 OVC080 08/M05 A3005 RMK AO2
K1V6 211935Z AUTO 07013G22KT 10SM BKN080 OVC090 08/M02 A3003 RMK AO2
K1V6 211915Z AUTO 13010KT 10SM SCT080 07/01 A3004 RMK AO2
K1V6 211855Z AUTO 16004KT 10SM CLR 05/01 A3005 RMK AO2
K1V6 211835Z AUTO 17003KT 10SM CLR 03/00 A3005 RMK AO2
K1V6 211815Z AUTO 00000KT 10SM CLR 01/M01 A3005 RMK AO2
K1V6 211755Z AUTO 00000KT 7SM CLR 00/00 A3005 RMK AO2
K1V6 211735Z AUTO 00000KT 10SM CLR 01/00 A3005 RMK AO2
K1V6 211715Z AUTO 09006KT 10SM CLR 01/00 A3003 RMK AO2
K1V6 211655Z AUTO 10004KT 10SM CLR 01/00 A3002 RMK AO2
K1V6 211635Z AUTO 08006KT 10SM CLR 00/00 A3002 RMK AO2
K1V6 211615Z AUTO 27011KT 10SM CLR M01/M01 A3000 RMK AO2
K1V6 211555Z AUTO 29006KT 10SM CLR M02/M02 A2999 RMK AO2
K1V6 211535Z AUTO 27004KT 7SM CLR M04/M05 A2999 RMK AO2
K1V6 211515Z AUTO 25004KT 7SM CLR M05/M06 A2998 RMK AO2
K1V6 211455Z AUTO 00000KT 7SM CLR M06/M07 A2997 RMK AO2
K1V6 211435Z AUTO 00000KT 7SM CLR M06/M07 A2997 RMK AO2
K1V6 211415Z AUTO 03003KT 5SM BR SCT120 M06/M07 A2996 RMK AO2
K1V6 211355Z AUTO 00000KT 7SM SCT120 M06/M07 A2996 RMK AO2
K1V6 211335Z AUTO 00000KT 5SM BR CLR M06/M06 A2995 RMK AO2
K1V6 211315Z AUTO 00000KT 4SM BR SCT001 M05/M06 A2995 RMK AO2
K1V6 211255Z AUTO 00000KT 2SM BR BKN001 M05/M06 A2995 RMK AO2
K1V6 211235Z AUTO 19003KT 4SM BR CLR M05/M06 A2994 RMK AO2
K1V6 211215Z AUTO 00000KT 5SM BR SCT001 SCT120 M06/M06 A2994 RMK AO2
K1V6 211155Z AUTO 05004KT 1 1/4SM BR OVC001 M06/M07 A2994 RMK AO2
K1V6 211135Z AUTO 00000KT 4SM BR BKN001 OVC110 M06/M07 A2995 RMK AO2
K1V6 211115Z AUTO 00000KT 5SM BR SCT001 OVC120 M06/M07 A2995 RMK AO2
K1V6 211055Z AUTO 08003KT 1/4SM FZFG OVC001 M06/M07 A2995 RMK AO2
K1V6 211035Z AUTO 00000KT 1/4SM FZFG OVC001 M06/M07 A2996 RMK AO2
K1V6 211015Z AUTO 00000KT 1/4SM FZFG OVC003 M05/M06 A2996 RMK AO2
K1V6 210955Z AUTO 00000KT 1/4SM FZFG OVC003 M05/M06 A2997 RMK AO2
K1V6 210935Z AUTO 00000KT 1/4SM FZFG OVC003 M05/M06 A2998 RMK AO2
K1V6 210915Z AUTO 00000KT 1/4SM FZFG OVC003 M06/M06 A2999 RMK AO2
K1V6 210855Z AUTO 00000KT 1/4SM FZFG OVC003 M05/M06 A2999 RMK AO2
K1V6 210835Z AUTO 00000KT 1/4SM FZFG OVC003 M05/M06 A2999 RMK AO2
K1V6 210815Z AUTO 00000KT 1/4SM FZFG OVC003 M05/M06 A2999 RMK AO2
K1V6 210755Z AUTO 05003KT 1/4SM FZFG OVC003 M05/M06 A3000 RMK AO2
K1V6 210735Z AUTO 00000KT 1/4SM FZFG OVC003 M05/M06 A3000 RMK AO2
K1V6 210715Z AUTO 00000KT 1/4SM FZFG OVC003 M05/M06 A3002 RMK AO2
K1V6 210655Z AUTO 00000KT 1/2SM FZFG OVC003 M05/M05 A3003 RMK AO2
K1V6 210635Z AUTO 00000KT 1/4SM FZFG OVC003 M05/M05 A3004 RMK AO2
K1V6 210615Z AUTO 00000KT 3/4SM BR OVC003 M04/M05 A3005 RMK AO2
K1V6 210555Z AUTO 00000KT 2 1/2SM BR OVC003 M04/M05 A3005 RMK AO2
K1V6 210535Z AUTO 00000KT 3SM BR OVC003 M04/M04 A3007 RMK AO2
K1V6 210515Z AUTO 00000KT 5SM BR OVC003 M03/M03 A3007 RMK AO2
K1V6 210455Z AUTO 00000KT 7SM OVC005 M03/M03 A3008 RMK AO2
K1V6 210435Z AUTO 00000KT 7SM OVC005 M03/M03 A3009 RMK AO2
K1V6 210415Z AUTO 28005KT 7SM OVC005 M03/M03 A3010 RMK AO2
K1V6 210355Z AUTO 29004KT 7SM OVC005 M02/M03 A3011 RMK AO2
K1V6 210335Z AUTO 28003KT 10SM OVC005 M02/M03 A3011 RMK AO2
K1V6 210315Z AUTO 26004KT 10SM OVC005 M03/M03 A3012 RMK AO2
K1V6 210255Z AUTO 00000KT 10SM OVC005 M03/M03 A3012 RMK AO2
K1V6 210235Z AUTO 28004KT 10SM OVC005 M02/M03 A3013 RMK AO2
K1V6 210215Z AUTO 25005KT 10SM OVC005 M02/M03 A3013 RMK AO2
K1V6 210155Z AUTO 25006KT 7SM OVC005 M02/M02 A3013 RMK AO2
K1V6 210135Z AUTO 27006KT 7SM OVC005 M02/M02 A3013 RMK AO2
K1V6 210115Z AUTO 27005KT 7SM OVC005 M02/M02 A3013 RMK AO2
K1V6 210055Z AUTO 27004KT 7SM BKN005 OVC015 M02/M02 A3014 RMK AO2
K1V6 210035Z AUTO 26005KT 10SM SCT005 BKN015 M03/M03 A3014 RMK AO2
K1V6 210015Z AUTO 24005KT 10SM SCT005 SCT017 M02/M03 A3014 RMK AO2
K1V6 202355Z AUTO 23006KT 10SM BKN007 M02/M02 A3014 RMK AO2